createdAt,value
2022-09-01T00:00:03.767Z,1020.2
2022-09-01T00:01:02.571Z,1020.3
2022-09-01T00:02:02.704Z,1020.2
2022-09-01T00:03:02.764Z,1020.2
2022-09-01T00:04:02.800Z,1020.2
2022-09-01T00:05:02.715Z,1020.2
2022-09-01T00:06:02.523Z,1020.2
2022-09-01T00:07:03.063Z,1020.2
2022-09-01T00:08:01.854Z,1020.2
2022-09-01T00:09:02.829Z,1020.2
2022-09-01T00:10:02.635Z,1020.2
2022-09-01T00:11:02.716Z,1020.2
2022-09-01T00:12:02.543Z,1020.3
2022-09-01T00:13:02.512Z,1020.2
2022-09-01T00:14:02.429Z,1020.2
2022-09-01T00:15:02.257Z,1020.1
2022-09-01T00:16:02.840Z,1020.1
2022-09-01T00:17:02.790Z,1020.1
2022-09-01T00:18:02.603Z,1020.1
2022-09-01T00:19:02.600Z,1020.2
2022-09-01T00:20:02.502Z,1020.1
2022-09-01T00:21:02.306Z,1020.2
2022-09-01T00:22:02.289Z,1020.2
2022-09-01T00:23:02.102Z,1020.2
2022-09-01T00:24:02.036Z,1020.2
2022-09-01T00:25:01.810Z,1020.1
2022-09-01T00:26:02.900Z,1020.2
2022-09-01T00:27:02.724Z,1020.2
2022-09-01T00:28:02.669Z,1020.2
2022-09-01T00:29:02.520Z,1020.2
2022-09-01T00:30:02.498Z,1020.2
2022-09-01T00:31:02.720Z,1020.2
2022-09-01T00:32:02.584Z,1020.2
2022-09-01T00:33:02.574Z,1020.2
2022-09-01T00:34:02.487Z,1020.2
2022-09-01T00:35:02.309Z,1020.1
2022-09-01T00:36:02.374Z,1020.2
2022-09-01T00:37:02.298Z,1020.2
2022-09-01T00:38:02.119Z,1020.2
2022-09-01T00:39:02.055Z,1020.2
2022-09-01T00:40:01.845Z,1020.2
2022-09-01T00:41:02.841Z,1020.1
2022-09-01T00:42:02.690Z,1020.2
2022-09-01T00:43:02.679Z,1020.2
2022-09-01T00:44:02.526Z,1020.1
2022-09-01T00:45:03.326Z,1020.1
2022-09-01T00:46:03.627Z,1020.1
2022-09-01T00:47:02.417Z,1020.1
2022-09-01T00:48:05.571Z,1020.2
2022-09-01T00:49:02.547Z,1020.1
2022-09-01T00:50:02.387Z,1020.1
2022-09-01T00:51:02.299Z,1020.1
2022-09-01T00:52:03.057Z,1020.1
2022-09-01T00:53:02.678Z,1020.1
2022-09-01T00:54:02.678Z,1020.1
2022-09-01T00:55:02.660Z,1020.1
2022-09-01T00:56:02.521Z,1020.1
2022-09-01T00:57:02.463Z,1020.1
2022-09-01T00:58:02.312Z,1020.1
2022-09-01T00:59:02.251Z,1020.1
2022-09-01T01:00:02.045Z,1020.1
2022-09-01T01:01:02.289Z,1020.2
2022-09-01T01:02:02.269Z,1020.1
2022-09-01T01:03:02.433Z,1020.1
2022-09-01T01:04:02.295Z,1020.1
2022-09-01T01:05:02.312Z,1020
2022-09-01T01:06:02.155Z,1020.1
2022-09-01T01:07:02.265Z,1020.1
2022-09-01T01:08:02.103Z,1020.1
2022-09-01T01:09:02.000Z,1020.1
2022-09-01T01:10:01.794Z,1020.1
2022-09-01T01:11:02.815Z,1020.1
2022-09-01T01:12:02.629Z,1020.1
2022-09-01T01:13:02.619Z,1020.1
2022-09-01T01:14:02.537Z,1020.1
2022-09-01T01:15:02.352Z,1020
2022-09-01T01:16:02.374Z,1020.1
2022-09-01T01:17:02.485Z,1020.1
2022-09-01T01:18:02.432Z,1020.1
2022-09-01T01:19:02.225Z,1020.1
2022-09-01T01:20:02.181Z,1020.1
2022-09-01T01:21:02.004Z,1020.2
2022-09-01T01:22:02.062Z,1020.2
2022-09-01T01:23:01.863Z,1020.2
2022-09-01T01:24:02.838Z,1020.2
2022-09-01T01:25:02.674Z,1020.2
2022-09-01T01:26:02.617Z,1020.2
2022-09-01T01:27:02.527Z,1020.2
2022-09-01T01:28:02.436Z,1020.1
2022-09-01T01:29:02.272Z,1020.1
2022-09-01T01:30:02.126Z,1020.1
2022-09-01T01:31:02.598Z,1020.1
2022-09-01T01:32:02.529Z,1020.1
2022-09-01T01:33:03.970Z,1020.1
2022-09-01T01:34:02.299Z,1020.1
2022-09-01T01:35:02.226Z,1020.2
2022-09-01T01:36:02.053Z,1020.1
2022-09-01T01:37:02.012Z,1020.2
2022-09-01T01:38:01.823Z,1020.1
2022-09-01T01:39:02.793Z,1020.1
2022-09-01T01:40:02.789Z,1020.2
2022-09-01T01:41:02.734Z,1020.2
2022-09-01T01:42:02.551Z,1020.2
2022-09-01T01:43:02.536Z,1020.2
2022-09-01T01:44:02.452Z,1020.2
2022-09-01T01:45:02.347Z,1020.2
2022-09-01T01:46:02.544Z,1020.2
2022-09-01T01:47:02.643Z,1020.1
2022-09-01T01:48:02.554Z,1020.2
2022-09-01T01:49:02.371Z,1020.1
2022-09-01T01:50:02.375Z,1020.1
2022-09-01T01:51:02.165Z,1020.1
2022-09-01T01:52:02.104Z,1020.1
2022-09-01T01:53:01.893Z,1020.1
2022-09-01T01:54:02.870Z,1020.1
2022-09-01T01:55:05.817Z,1020.1
2022-09-01T01:56:02.615Z,1020.1
2022-09-01T01:57:02.605Z,1020
2022-09-01T01:58:02.536Z,1020.1
2022-09-01T01:59:02.323Z,1020.1
2022-09-01T02:00:02.321Z,1020.1
2022-09-01T02:01:02.038Z,1020.1
2022-09-01T02:02:02.203Z,1020.1
2022-09-01T02:03:02.034Z,1020
2022-09-01T02:04:01.965Z,1020.1
2022-09-01T02:05:01.764Z,1020.1
2022-09-01T02:06:02.751Z,1020.1
2022-09-01T02:07:02.569Z,1020.1
2022-09-01T02:08:02.559Z,1020
2022-09-01T02:09:02.504Z,1020
2022-09-01T02:10:02.357Z,1020
2022-09-01T02:11:02.303Z,1020
2022-09-01T02:12:02.766Z,1020
2022-09-01T02:13:02.586Z,1020
2022-09-01T02:14:02.569Z,1019.9
2022-09-01T02:15:02.497Z,1020
2022-09-01T02:16:02.118Z,1020
2022-09-01T02:17:02.360Z,1020
2022-09-01T02:18:06.026Z,1020
2022-09-01T02:19:01.887Z,1020
2022-09-01T02:20:02.806Z,1020
2022-09-01T02:21:02.639Z,1020.1
2022-09-01T02:22:02.578Z,1020
2022-09-01T02:23:02.660Z,1020
2022-09-01T02:24:02.525Z,1020
2022-09-01T02:25:02.478Z,1020.1
2022-09-01T02:26:18.242Z,1020.1
2022-09-01T02:27:02.069Z,1020.1
2022-09-01T02:28:01.980Z,1020.1
2022-09-01T02:29:01.825Z,1020
2022-09-01T02:30:02.794Z,1020
2022-09-01T02:31:03.104Z,1020
2022-09-01T02:32:02.463Z,1020
2022-09-01T02:33:02.632Z,1020
2022-09-01T02:34:02.484Z,1020.1
2022-09-01T02:35:02.410Z,1020
2022-09-01T02:36:02.338Z,1020
2022-09-01T02:37:02.132Z,1020
2022-09-01T02:38:02.099Z,1020
2022-09-01T02:39:01.896Z,1020
2022-09-01T02:40:03.099Z,1020
2022-09-01T02:41:01.924Z,1020
2022-09-01T02:42:02.035Z,1020
2022-09-01T02:43:01.823Z,1020
2022-09-01T02:44:03.130Z,1020
2022-09-01T02:45:03.404Z,1020
2022-09-01T02:46:02.971Z,1020
2022-09-01T02:47:02.165Z,1020
2022-09-01T02:48:02.654Z,1020
2022-09-01T02:49:02.744Z,1020
2022-09-01T02:50:02.833Z,1019.9
2022-09-01T02:51:02.682Z,1020
2022-09-01T02:52:02.654Z,1020
2022-09-01T02:53:04.614Z,1020
2022-09-01T02:54:02.423Z,1020
2022-09-01T02:55:02.391Z,1020
2022-09-01T02:56:02.299Z,1020
2022-09-01T02:57:02.157Z,1020
2022-09-01T02:58:02.063Z,1020
2022-09-01T02:59:01.861Z,1020
2022-09-01T03:00:02.831Z,1019.9
2022-09-01T03:01:03.691Z,1020
2022-09-01T03:02:02.565Z,1019.9
2022-09-01T03:03:02.500Z,1020
2022-09-01T03:04:02.424Z,1019.9
2022-09-01T03:05:02.634Z,1019.9
2022-09-01T03:06:02.725Z,1019.9
2022-09-01T03:07:02.512Z,1019.9
2022-09-01T03:08:02.525Z,1019.9
2022-09-01T03:09:02.450Z,1020
2022-09-01T03:10:02.233Z,1020
2022-09-01T03:11:02.190Z,1019.9
2022-09-01T03:12:01.973Z,1019.9
2022-09-01T03:13:01.951Z,1020
2022-09-01T03:14:02.887Z,1020
2022-09-01T03:15:02.695Z,1020
2022-09-01T03:16:02.488Z,1020
2022-09-01T03:17:02.680Z,1020
2022-09-01T03:18:02.676Z,1020
2022-09-01T03:19:02.487Z,1020
2022-09-01T03:20:02.458Z,1019.9
2022-09-01T03:21:02.495Z,1020
2022-09-01T03:22:02.305Z,1019.9
2022-09-01T03:23:02.261Z,1020
2022-09-01T03:24:02.074Z,1019.9
2022-09-01T03:25:01.931Z,1019.9
2022-09-01T03:26:02.859Z,1019.9
2022-09-01T03:27:02.659Z,1020
2022-09-01T03:28:03.620Z,1019.9
2022-09-01T03:29:02.431Z,1020
2022-09-01T03:30:02.406Z,1020
2022-09-01T03:31:02.511Z,1020
2022-09-01T03:32:02.577Z,1020
2022-09-01T03:33:02.591Z,1020
2022-09-01T03:34:02.506Z,1019.9
2022-09-01T03:35:02.305Z,1020
2022-09-01T03:36:02.255Z,1020
2022-09-01T03:37:02.070Z,1020
2022-09-01T03:38:02.007Z,1019.9
2022-09-01T03:39:01.850Z,1019.9
2022-09-01T03:40:02.978Z,1020
2022-09-01T03:41:01.843Z,1020
2022-09-01T03:42:02.809Z,1020
2022-09-01T03:43:02.666Z,1019.9
2022-09-01T03:44:02.578Z,1020
2022-09-01T03:45:02.495Z,1020
2022-09-01T03:46:02.664Z,1020
2022-09-01T03:47:02.889Z,1019.9
2022-09-01T03:48:02.807Z,1020
2022-09-01T03:49:02.641Z,1020
2022-09-01T03:50:02.603Z,1020
2022-09-01T03:51:02.480Z,1020
2022-09-01T03:52:02.290Z,1020
2022-09-01T03:53:02.287Z,1020
2022-09-01T03:54:02.081Z,1020
2022-09-01T03:55:02.111Z,1020
2022-09-01T03:56:01.908Z,1020
2022-09-01T03:57:03.577Z,1020.1
2022-09-01T03:58:02.416Z,1020
2022-09-01T03:59:02.359Z,1020
2022-09-01T04:00:03.409Z,1020.1
2022-09-01T04:01:02.453Z,1020
2022-09-01T04:02:02.591Z,1020.1
2022-09-01T04:03:02.530Z,1020.1
2022-09-01T04:04:02.345Z,1020.1
2022-09-01T04:05:08.797Z,1020.1
2022-09-01T04:06:02.664Z,1020.2
2022-09-01T04:07:02.481Z,1020
2022-09-01T04:08:02.472Z,1020.1
2022-09-01T04:09:02.420Z,1020.1
2022-09-01T04:10:02.239Z,1020
2022-09-01T04:11:02.166Z,1020.1
2022-09-01T04:12:01.962Z,1020.1
2022-09-01T04:13:01.895Z,1020
2022-09-01T04:14:02.828Z,1020.1
2022-09-01T04:15:02.655Z,1020.1
2022-09-01T04:16:02.002Z,1020.1
2022-09-01T04:17:01.916Z,1020.1
2022-09-01T04:18:02.841Z,1020.1
2022-09-01T04:19:02.675Z,1020.1
2022-09-01T04:20:02.624Z,1020.1
2022-09-01T04:21:02.544Z,1020.1
2022-09-01T04:22:02.416Z,1020.1
2022-09-01T04:23:02.334Z,1020.1
2022-09-01T04:24:02.129Z,1020.1
2022-09-01T04:25:02.080Z,1020.1
2022-09-01T04:26:01.868Z,1020.2
2022-09-01T04:27:03.140Z,1020.1
2022-09-01T04:28:01.943Z,1020.1
2022-09-01T04:29:01.919Z,1020.1
2022-09-01T04:30:02.823Z,1020.1
2022-09-01T04:31:02.715Z,1020.1
2022-09-01T04:32:04.204Z,1020.1
2022-09-01T04:33:02.111Z,1020.2
2022-09-01T04:34:02.061Z,1020.2
2022-09-01T04:35:01.857Z,1020.2
2022-09-01T04:36:02.799Z,1020.2
2022-09-01T04:37:02.618Z,1020.2
2022-09-01T04:38:02.220Z,1020.2
2022-09-01T04:39:02.013Z,1020.2
2022-09-01T04:40:02.284Z,1020.2
2022-09-01T04:41:02.103Z,1020.2
2022-09-01T04:42:02.033Z,1020.2
2022-09-01T04:43:01.839Z,1020.2
2022-09-01T04:44:02.836Z,1020.2
2022-09-01T04:45:11.807Z,1020.3
2022-09-01T04:46:02.865Z,1020.2
2022-09-01T04:47:02.812Z,1020.2
2022-09-01T04:48:02.644Z,1020.2
2022-09-01T04:49:02.672Z,1020.2
2022-09-01T04:50:02.517Z,1020.2
2022-09-01T04:51:02.489Z,1020.2
2022-09-01T04:52:02.404Z,1020.3
2022-09-01T04:53:02.219Z,1020.3
2022-09-01T04:54:02.136Z,1020.3
2022-09-01T04:55:01.901Z,1020.3
2022-09-01T04:56:01.892Z,1020.3
2022-09-01T04:57:02.819Z,1020.2
2022-09-01T04:58:08.422Z,1020.3
2022-09-01T04:59:01.819Z,1020.3
2022-09-01T05:00:02.791Z,1020.3
2022-09-01T05:01:02.762Z,1020.3
2022-09-01T05:02:02.966Z,1020.2
2022-09-01T05:03:01.805Z,1020.2
2022-09-01T05:04:04.646Z,1020.2
2022-09-01T05:05:02.468Z,1020.2
2022-09-01T05:06:02.496Z,1020.2
2022-09-01T05:07:02.452Z,1020.2
2022-09-01T05:08:02.276Z,1020.3
2022-09-01T05:09:02.246Z,1020.3
2022-09-01T05:10:02.316Z,1020.2
2022-09-01T05:11:02.219Z,1020.2
2022-09-01T05:12:02.140Z,1020.2
2022-09-01T05:13:02.004Z,1020.2
2022-09-01T05:14:01.886Z,1020.3
2022-09-01T05:15:02.616Z,1020.3
2022-09-01T05:16:02.766Z,1020.2
2022-09-01T05:17:02.756Z,1020.3
2022-09-01T05:18:02.791Z,1020.3
2022-09-01T05:19:02.599Z,1020.2
2022-09-01T05:20:02.561Z,1020.2
2022-09-01T05:21:02.480Z,1020.2
2022-09-01T05:22:02.284Z,1020.2
2022-09-01T05:23:02.225Z,1020.2
2022-09-01T05:24:02.161Z,1020.2
2022-09-01T05:25:02.026Z,1020.2
2022-09-01T05:26:01.839Z,1020.2
2022-09-01T05:27:02.807Z,1020.3
2022-09-01T05:28:02.627Z,1020.2
2022-09-01T05:29:02.622Z,1020.2
2022-09-01T05:30:02.755Z,1020.2
2022-09-01T05:31:02.754Z,1020.2
2022-09-01T05:32:02.628Z,1020.2
2022-09-01T05:33:02.637Z,1020.2
2022-09-01T05:34:02.574Z,1020.2
2022-09-01T05:35:02.426Z,1020.2
2022-09-01T05:36:02.287Z,1020.2
2022-09-01T05:37:02.133Z,1020.2
2022-09-01T05:38:01.998Z,1020.2
2022-09-01T05:39:01.816Z,1020.2
2022-09-01T05:40:03.127Z,1020.2
2022-09-01T05:41:01.937Z,1020.2
2022-09-01T05:42:01.933Z,1020.2
2022-09-01T05:43:02.863Z,1020.2
2022-09-01T05:44:02.698Z,1020.2
2022-09-01T05:45:02.719Z,1020.1
2022-09-01T05:46:08.050Z,1020.2
2022-09-01T05:47:02.239Z,1020.2
2022-09-01T05:48:02.162Z,1020.2
2022-09-01T05:49:01.973Z,1020.2
2022-09-01T05:50:01.933Z,1020.2
2022-09-01T05:51:02.839Z,1020.2
2022-09-01T05:52:04.601Z,1020.2
2022-09-01T05:53:04.089Z,1020.2
2022-09-01T05:54:02.275Z,1020.2
2022-09-01T05:55:02.988Z,1020.2
2022-09-01T05:56:02.507Z,1020.2
2022-09-01T05:57:35.371Z,1020.2
2022-09-01T05:58:02.368Z,1020.2
2022-09-01T05:59:27.363Z,1020.3
2022-09-01T06:00:02.190Z,1020.3
2022-09-01T06:01:02.087Z,1020.2
2022-09-01T06:02:02.699Z,1020.3
2022-09-01T06:03:03.161Z,1020.2
2022-09-01T06:04:02.108Z,1020.2
2022-09-01T06:05:01.882Z,1020.3
2022-09-01T06:06:02.871Z,1020.3
2022-09-01T06:07:11.798Z,1020.3
2022-09-01T06:08:02.519Z,1020.3
2022-09-01T06:09:02.537Z,1020.3
2022-09-01T06:10:02.430Z,1020.3
2022-09-01T06:11:02.264Z,1020.3
2022-09-01T06:12:02.171Z,1020.3
2022-09-01T06:13:02.625Z,1020.2
2022-09-01T06:14:03.683Z,1020.3
2022-09-01T06:15:02.517Z,1020.3
2022-09-01T06:16:02.753Z,1020.3
2022-09-01T06:17:02.759Z,1020.3
2022-09-01T06:18:02.584Z,1020.3
2022-09-01T06:19:02.578Z,1020.4
2022-09-01T06:20:02.553Z,1020.4
2022-09-01T06:21:02.378Z,1020.3
2022-09-01T06:22:02.373Z,1020.3
2022-09-01T06:23:02.296Z,1020.4
2022-09-01T06:24:02.113Z,1020.3
2022-09-01T06:25:03.634Z,1020.4
2022-09-01T06:26:02.555Z,1020.3
2022-09-01T06:27:02.370Z,1020.4
2022-09-01T06:28:02.340Z,1020.3
2022-09-01T06:29:02.133Z,1020.3
2022-09-01T06:30:02.186Z,1020.4
2022-09-01T06:31:02.297Z,1020.4
2022-09-01T06:32:01.915Z,1020.4
2022-09-01T06:33:01.972Z,1020.4
2022-09-01T06:34:01.799Z,1020.4
2022-09-01T06:35:05.691Z,1020.4
2022-09-01T06:36:02.519Z,1020.4
2022-09-01T06:37:02.524Z,1020.4
2022-09-01T06:38:02.486Z,1020.4
2022-09-01T06:39:02.309Z,1020.5
2022-09-01T06:40:02.468Z,1020.4
2022-09-01T06:41:02.459Z,1020.5
2022-09-01T06:42:06.557Z,1020.5
2022-09-01T06:43:02.380Z,1020.4
2022-09-01T06:44:02.289Z,1020.5
2022-09-01T06:45:02.065Z,1020.5
2022-09-01T06:46:01.988Z,1020.5
2022-09-01T06:47:02.590Z,1020.6
2022-09-01T06:48:02.467Z,1020.6
2022-09-01T06:49:02.467Z,1020.6
2022-09-01T06:50:02.407Z,1020.6
2022-09-01T06:52:02.159Z,1020.6
2022-09-01T06:53:35.095Z,1020.6
2022-09-01T06:54:02.245Z,1020.6
2022-09-01T06:55:08.335Z,1020.7
2022-09-01T06:56:02.122Z,1020.6
2022-09-01T06:58:06.720Z,1020.6
2022-09-01T06:58:07.469Z,1020.7
2022-09-01T06:59:03.166Z,1020.7
2022-09-01T07:00:02.102Z,1020.6
2022-09-01T07:01:02.380Z,1020.7
2022-09-01T07:02:06.276Z,1020.7
2022-09-01T07:03:02.143Z,1020.7
2022-09-01T07:04:03.139Z,1020.6
2022-09-01T07:05:02.752Z,1020.6
2022-09-01T07:06:03.535Z,1020.6
2022-09-01T07:08:06.504Z,1020.7
2022-09-01T07:09:50.227Z,1020.7
2022-09-01T07:12:25.273Z,1020.7
2022-09-01T07:12:26.787Z,1020.7
2022-09-01T07:13:06.679Z,1020.7
2022-09-01T07:14:17.100Z,1020.7
2022-09-01T07:17:24.516Z,1020.7
2022-09-01T07:18:02.442Z,1020.7
2022-09-01T07:19:02.349Z,1020.7
2022-09-01T07:20:26.153Z,1020.6
2022-09-01T07:22:09.627Z,1020.7
2022-09-01T07:25:14.346Z,1020.7
2022-09-01T07:28:02.355Z,1020.8
2022-09-01T07:29:06.469Z,1020.7
2022-09-01T07:30:02.005Z,1020.7
2022-09-01T07:31:51.530Z,1020.8
2022-09-01T07:32:48.000Z,1020.8
2022-09-01T07:33:45.612Z,1020.8
2022-09-01T07:34:40.206Z,1020.7
2022-09-01T07:35:04.925Z,1020.8
2022-09-01T07:36:31.053Z,1020.8
2022-09-01T07:39:48.905Z,1020.8
2022-09-01T07:39:49.775Z,1020.8
2022-09-01T07:39:50.384Z,1020.8
2022-09-01T07:42:58.481Z,1020.7
2022-09-01T07:42:58.529Z,1020.8
2022-09-01T07:44:02.438Z,1020.7
2022-09-01T07:45:28.943Z,1020.8
2022-09-01T07:46:38.301Z,1020.9
2022-09-01T07:47:54.119Z,1020.8
2022-09-01T07:48:02.271Z,1020.8
2022-09-01T07:49:35.719Z,1020.9
2022-09-01T07:51:34.978Z,1020.8
2022-09-01T07:51:37.615Z,1020.8
2022-09-01T07:52:02.947Z,1020.7
2022-09-01T07:53:01.923Z,1020.7
2022-09-01T07:54:02.836Z,1020.8
2022-09-01T07:55:02.648Z,1020.8
2022-09-01T07:56:02.615Z,1020.8
2022-09-01T07:57:02.560Z,1020.8
2022-09-01T07:58:02.380Z,1020.8
2022-09-01T07:59:02.336Z,1020.8
2022-09-01T08:00:02.115Z,1020.8
2022-09-01T08:01:02.099Z,1020.8
2022-09-01T08:02:02.673Z,1020.8
2022-09-01T08:03:02.726Z,1020.8
2022-09-01T08:04:02.707Z,1020.8
2022-09-01T08:05:02.523Z,1020.8
2022-09-01T08:06:02.619Z,1020.8
2022-09-01T08:07:02.593Z,1020.8
2022-09-01T08:08:02.402Z,1020.8
2022-09-01T08:09:03.611Z,1020.8
2022-09-01T08:10:02.547Z,1020.8
2022-09-01T08:11:05.877Z,1020.8
2022-09-01T08:12:03.642Z,1020.8
2022-09-01T08:13:04.723Z,1020.9
2022-09-01T08:14:02.128Z,1020.8
2022-09-01T08:16:18.846Z,1020.8
2022-09-01T08:17:34.041Z,1020.8
2022-09-01T08:18:02.702Z,1020.8
2022-09-01T08:19:02.970Z,1020.9
2022-09-01T08:20:03.560Z,1020.9
2022-09-01T08:21:02.384Z,1020.9
2022-09-01T08:22:02.519Z,1021
2022-09-01T08:23:02.569Z,1020.9
2022-09-01T08:24:02.383Z,1020.8
2022-09-01T08:25:02.360Z,1020.9
2022-09-01T08:26:02.305Z,1020.8
2022-09-01T08:27:02.115Z,1020.8
2022-09-01T08:28:02.199Z,1020.8
2022-09-01T08:29:02.015Z,1020.9
2022-09-01T08:30:01.916Z,1020.8
2022-09-01T08:31:11.516Z,1020.9
2022-09-01T08:32:02.593Z,1020.9
2022-09-01T08:33:11.289Z,1020.9
2022-09-01T08:34:02.145Z,1020.8
2022-09-01T08:35:02.158Z,1020.9
2022-09-01T08:36:01.953Z,1020.9
2022-09-01T08:37:02.587Z,1020.9
2022-09-01T08:38:02.496Z,1020.9
2022-09-01T08:39:02.326Z,1020.9
2022-09-01T08:40:04.503Z,1020.8
2022-09-01T08:41:02.695Z,1020.9
2022-09-01T08:42:02.661Z,1020.9
2022-09-01T08:43:02.492Z,1020.9
2022-09-01T08:44:02.435Z,1020.9
2022-09-01T08:45:02.257Z,1020.8
2022-09-01T08:46:02.405Z,1020.9
2022-09-01T08:47:02.527Z,1020.8
2022-09-01T08:49:26.389Z,1020.8
2022-09-01T08:49:28.842Z,1020.9
2022-09-01T08:50:06.344Z,1020.8
2022-09-01T08:51:03.171Z,1020.8
2022-09-01T08:52:01.993Z,1020.8
2022-09-01T08:53:10.164Z,1020.8
2022-09-01T08:54:01.945Z,1020.8
2022-09-01T08:55:01.892Z,1020.8
2022-09-01T08:56:02.788Z,1020.8
2022-09-01T08:57:02.580Z,1020.7
2022-09-01T08:58:02.741Z,1020.8
2022-09-01T08:59:03.662Z,1020.9
2022-09-01T09:00:02.040Z,1020.8
2022-09-01T09:01:01.980Z,1020.8
2022-09-01T09:02:02.159Z,1020.8
2022-09-01T09:03:02.298Z,1020.8
2022-09-01T09:04:02.096Z,1020.8
2022-09-01T09:05:15.182Z,1020.8
2022-09-01T09:06:02.302Z,1020.8
2022-09-01T09:07:02.128Z,1020.7
2022-09-01T09:08:08.407Z,1020.8
2022-09-01T09:09:02.349Z,1020.7
2022-09-01T09:10:02.216Z,1020.8
2022-09-01T09:11:02.120Z,1020.8
2022-09-01T09:12:04.764Z,1020.9
2022-09-01T09:13:02.583Z,1020.9
2022-09-01T09:14:02.483Z,1020.8
2022-09-01T09:15:02.378Z,1020.8
2022-09-01T09:16:09.366Z,1020.8
2022-09-01T09:17:02.301Z,1020.7
2022-09-01T09:18:34.305Z,1020.9
2022-09-01T09:19:02.289Z,1020.8
2022-09-01T09:20:02.078Z,1020.8
2022-09-01T09:21:02.025Z,1020.8
2022-09-01T09:22:02.320Z,1020.8
2022-09-01T09:23:04.451Z,1020.8
2022-09-01T09:24:02.274Z,1020.7
2022-09-01T09:25:02.232Z,1020.7
2022-09-01T09:26:03.461Z,1020.7
2022-09-01T09:27:02.372Z,1020.8
2022-09-01T09:28:02.333Z,1020.8
2022-09-01T09:29:02.112Z,1020.8
2022-09-01T09:30:11.975Z,1020.8
2022-09-01T09:31:02.012Z,1020.7
2022-09-01T09:32:02.442Z,1020.8
2022-09-01T09:33:53.616Z,1020.8
2022-09-01T09:34:02.847Z,1020.8
2022-09-01T09:35:02.666Z,1020.8
2022-09-01T09:36:02.578Z,1020.8
2022-09-01T09:37:02.486Z,1020.8
2022-09-01T09:38:02.861Z,1020.8
2022-09-01T09:39:04.110Z,1020.8
2022-09-01T09:40:02.175Z,1020.8
2022-09-01T09:41:27.475Z,1020.8
2022-09-01T09:42:02.536Z,1020.7
2022-09-01T09:43:02.566Z,1020.7
2022-09-01T09:44:02.494Z,1020.7
2022-09-01T09:45:02.420Z,1020.7
2022-09-01T09:46:02.602Z,1020.7
2022-09-01T09:47:02.442Z,1020.7
2022-09-01T09:48:02.389Z,1020.7
2022-09-01T09:49:02.289Z,1020.7
2022-09-01T09:50:05.821Z,1020.7
2022-09-01T09:51:02.643Z,1020.7
2022-09-01T09:52:02.672Z,1020.7
2022-09-01T09:53:02.476Z,1020.7
2022-09-01T09:54:02.460Z,1020.7
2022-09-01T09:55:02.365Z,1020.7
2022-09-01T09:56:02.166Z,1020.7
2022-09-01T09:57:02.085Z,1020.8
2022-09-01T09:58:01.876Z,1020.7
2022-09-01T09:59:02.829Z,1020.6
2022-09-01T10:00:02.711Z,1020.7
2022-09-01T10:01:05.605Z,1020.7
2022-09-01T10:02:03.077Z,1020.7
2022-09-01T10:03:11.188Z,1020.7
2022-09-01T10:04:02.880Z,1020.8
2022-09-01T10:05:02.725Z,1020.7
2022-09-01T10:06:03.400Z,1020.7
2022-09-01T10:07:02.229Z,1020.8
2022-09-01T10:08:05.435Z,1020.7
2022-09-01T10:09:03.398Z,1020.8
2022-09-01T10:10:02.244Z,1020.7
2022-09-01T10:11:02.124Z,1020.7
2022-09-01T10:12:01.926Z,1020.7
2022-09-01T10:13:02.862Z,1020.6
2022-09-01T10:14:02.710Z,1020.7
2022-09-01T10:15:14.170Z,1020.7
2022-09-01T10:16:09.184Z,1020.8
2022-09-01T10:17:06.826Z,1020.7
2022-09-01T10:18:29.806Z,1020.7
2022-09-01T10:19:04.725Z,1020.8
2022-09-01T10:20:02.053Z,1020.7
2022-09-01T10:21:02.293Z,1020.7
2022-09-01T10:22:03.351Z,1020.7
2022-09-01T10:23:03.755Z,1020.7
2022-09-01T10:24:25.932Z,1020.7
2022-09-01T10:25:06.396Z,1020.7
2022-09-01T10:26:09.699Z,1020.7
2022-09-01T10:27:02.901Z,1020.7
2022-09-01T10:28:02.078Z,1020.6
2022-09-01T10:29:02.258Z,1020.6
2022-09-01T10:30:20.844Z,1020.6
2022-09-01T10:31:04.364Z,1020.6
2022-09-01T10:32:38.363Z,1020.7
2022-09-01T10:33:21.040Z,1020.6
2022-09-01T10:34:05.929Z,1020.7
2022-09-01T10:35:03.495Z,1020.7
2022-09-01T10:36:07.907Z,1020.6
2022-09-01T10:37:01.903Z,1020.6
2022-09-01T10:38:02.996Z,1020.7
2022-09-01T10:39:09.572Z,1020.6
2022-09-01T10:40:03.085Z,1020.7
2022-09-01T10:41:02.666Z,1020.7
2022-09-01T10:42:03.305Z,1020.7
2022-09-01T10:43:12.746Z,1020.6
2022-09-01T10:44:03.102Z,1020.6
2022-09-01T10:45:02.194Z,1020.6
2022-09-01T10:46:15.992Z,1020.7
2022-09-01T10:47:13.199Z,1020.6
2022-09-01T10:48:03.151Z,1020.5
2022-09-01T10:49:05.019Z,1020.5
2022-09-01T10:50:11.199Z,1020.6
2022-09-01T10:51:02.167Z,1020.5
2022-09-01T10:52:14.352Z,1020.5
2022-09-01T10:53:01.985Z,1020.5
2022-09-01T10:54:03.196Z,1020.6
2022-09-01T10:55:02.051Z,1020.6
2022-09-01T10:56:23.778Z,1020.5
2022-09-01T10:57:12.509Z,1020.6
2022-09-01T10:59:36.058Z,1020.5
2022-09-01T10:59:45.009Z,1020.5
2022-09-01T11:00:04.047Z,1020.6
2022-09-01T11:01:48.176Z,1020.6
2022-09-01T11:02:36.249Z,1020.5
2022-09-01T11:03:32.743Z,1020.5
2022-09-01T11:04:02.694Z,1020.5
2022-09-01T11:05:02.582Z,1020.5
2022-09-01T11:06:14.171Z,1020.5
2022-09-01T11:07:15.178Z,1020.5
2022-09-01T11:08:16.040Z,1020.6
2022-09-01T11:09:01.898Z,1020.6
2022-09-01T11:10:34.090Z,1020.5
2022-09-01T11:11:02.577Z,1020.4
2022-09-01T11:12:02.528Z,1020.5
2022-09-01T11:13:02.827Z,1020.5
2022-09-01T11:14:02.232Z,1020.5
2022-09-01T11:15:02.132Z,1020.5
2022-09-01T11:16:02.123Z,1020.5
2022-09-01T11:17:02.093Z,1020.5
2022-09-01T11:18:01.999Z,1020.5
2022-09-01T11:19:01.805Z,1020.5
2022-09-01T11:20:02.765Z,1020.5
2022-09-01T11:21:03.565Z,1020.5
2022-09-01T11:22:03.092Z,1020.5
2022-09-01T11:23:03.856Z,1020.5
2022-09-01T11:24:05.819Z,1020.6
2022-09-01T11:25:13.289Z,1020.6
2022-09-01T11:26:21.796Z,1020.5
2022-09-01T11:27:02.731Z,1020.5
2022-09-01T11:28:02.783Z,1020.4
2022-09-01T11:29:02.589Z,1020.4
2022-09-01T11:30:02.581Z,1020.4
2022-09-01T11:31:02.569Z,1020.4
2022-09-01T11:32:03.557Z,1020.5
2022-09-01T11:33:02.434Z,1020.5
2022-09-01T11:34:02.893Z,1020.5
2022-09-01T11:35:02.856Z,1020.5
2022-09-01T11:36:04.127Z,1020.5
2022-09-01T11:37:01.959Z,1020.5
2022-09-01T11:38:02.719Z,1020.5
2022-09-01T11:39:02.618Z,1020.5
2022-09-01T11:40:03.002Z,1020.5
2022-09-01T11:41:01.934Z,1020.5
2022-09-01T11:42:05.077Z,1020.4
2022-09-01T11:43:01.887Z,1020.4
2022-09-01T11:44:03.337Z,1020.4
2022-09-01T11:45:02.149Z,1020.4
2022-09-01T11:46:02.292Z,1020.4
2022-09-01T11:47:02.502Z,1020.4
2022-09-01T11:48:02.360Z,1020.4
2022-09-01T11:49:02.320Z,1020.4
2022-09-01T11:50:02.106Z,1020.4
2022-09-01T11:51:02.051Z,1020.5
2022-09-01T11:52:01.892Z,1020.5
2022-09-01T11:53:06.099Z,1020.4
2022-09-01T11:54:01.935Z,1020.4
2022-09-01T11:55:02.985Z,1020.4
2022-09-01T11:56:01.805Z,1020.4
2022-09-01T11:57:02.774Z,1020.3
2022-09-01T11:58:02.586Z,1020.4
2022-09-01T11:59:02.589Z,1020.3
2022-09-01T12:00:02.533Z,1020.3
2022-09-01T12:01:02.328Z,1020.3
2022-09-01T12:02:02.368Z,1020.3
2022-09-01T12:03:02.918Z,1020.3
2022-09-01T12:04:01.845Z,1020.3
2022-09-01T12:05:02.807Z,1020.3
2022-09-01T12:06:02.626Z,1020.3
2022-09-01T12:07:02.569Z,1020.3
2022-09-01T12:08:02.476Z,1020.3
2022-09-01T12:09:02.275Z,1020.3
2022-09-01T12:10:02.221Z,1020.3
2022-09-01T12:11:01.988Z,1020.3
2022-09-01T12:12:01.971Z,1020.3
2022-09-01T12:13:01.783Z,1020.2
2022-09-01T12:14:11.525Z,1020.3
2022-09-01T12:15:07.294Z,1020.3
2022-09-01T12:16:19.564Z,1020.3
2022-09-01T12:17:02.737Z,1020.3
2022-09-01T12:18:02.695Z,1020.3
2022-09-01T12:19:02.480Z,1020.3
2022-09-01T12:20:02.420Z,1020.3
2022-09-01T12:21:02.361Z,1020.2
2022-09-01T12:22:02.549Z,1020.3
2022-09-01T12:23:02.510Z,1020.3
2022-09-01T12:24:02.427Z,1020.3
2022-09-01T12:25:02.253Z,1020.3
2022-09-01T12:26:02.224Z,1020.2
2022-09-01T12:27:02.074Z,1020.3
2022-09-01T12:28:01.959Z,1020.2
2022-09-01T12:29:02.863Z,1020.3
2022-09-01T12:30:02.804Z,1020.2
2022-09-01T12:31:08.088Z,1020.3
2022-09-01T12:32:02.192Z,1020.3
2022-09-01T12:33:25.249Z,1020.2
2022-09-01T12:34:02.063Z,1020.2
2022-09-01T12:35:11.826Z,1020.2
2022-09-01T12:36:02.801Z,1020.2
2022-09-01T12:37:02.637Z,1020.2
2022-09-01T12:38:09.509Z,1020.3
2022-09-01T12:39:05.405Z,1020.2
2022-09-01T12:40:02.505Z,1020.2
2022-09-01T12:41:02.469Z,1020.1
2022-09-01T12:42:02.393Z,1020.1
2022-09-01T12:43:02.219Z,1020.2
2022-09-01T12:44:02.151Z,1020.1
2022-09-01T12:45:01.954Z,1020.1
2022-09-01T12:46:05.158Z,1020.2
2022-09-01T12:47:02.297Z,1020.2